sensor_id;sensor_type;location;lat;lon;timestamp;temperature;humidity
26954;DHT22;14508;50.924;11.600;2022-12-29T00:01:46;9.20;99.90
26954;DHT22;14508;50.924;11.600;2022-12-29T00:04:14;9.20;99.90
26954;DHT22;14508;50.924;11.600;2022-12-29T00:06:42;9.30;99.90
26954;DHT22;14508;50.924;11.600;2022-12-29T00:09:12;9.30;99.90
26954;DHT22;14508;50.924;11.600;2022-12-29T00:11:40;9.30;99.90
26954;DHT22;14508;50.924;11.600;2022-12-29T00:14:08;9.30;99.90
26954;DHT22;14508;50.924;11.600;2022-12-29T00:16:53;9.30;99.90
26954;DHT22;14508;50.924;11.600;2022-12-29T00:19:22;9.40;99.90
26954;DHT22;14508;50.924;11.600;2022-12-29T00:22:08;9.40;99.90
26954;DHT22;14508;50.924;11.600;2022-12-29T00:24:56;9.40;99.90
26954;DHT22;14508;50.924;11.600;2022-12-29T00:27:41;9.40;99.90
26954;DHT22;14508;50.924;11.600;2022-12-29T00:30:35;9.40;99.90
26954;DHT22;14508;50.924;11.600;2022-12-29T00:33:22;9.40;99.90
26954;DHT22;14508;50.924;11.600;2022-12-29T00:36:13;9.50;99.90
26954;DHT22;14508;50.924;11.600;2022-12-29T00:38:47;9.50;99.90
26954;DHT22;14508;50.924;11.600;2022-12-29T00:41:36;9.50;99.90
26954;DHT22;14508;50.924;11.600;2022-12-29T00:44:21;9.50;99.90
26954;DHT22;14508;50.924;11.600;2022-12-29T00:46:49;9.60;99.90
26954;DHT22;14508;50.924;11.600;2022-12-29T00:49:17;9.60;99.90
26954;DHT22;14508;50.924;11.600;2022-12-29T00:52:01;9.60;99.90
26954;DHT22;14508;50.924;11.600;2022-12-29T00:54:32;9.70;99.90
26954;DHT22;14508;50.924;11.600;2022-12-29T00:57:03;9.70;99.90
26954;DHT22;14508;50.924;11.600;2022-12-29T00:59:31;9.70;99.90
26954;DHT22;14508;50.924;11.600;2022-12-29T01:01:59;9.70;99.90
26954;DHT22;14508;50.924;11.600;2022-12-29T01:04:28;9.70;99.90
26954;DHT22;14508;50.924;11.600;2022-12-29T01:06:56;9.70;99.90
26954;DHT22;14508;50.924;11.600;2022-12-29T01:09:24;9.80;99.90
26954;DHT22;14508;50.924;11.600;2022-12-29T01:12:11;9.70;99.90
26954;DHT22;14508;50.924;11.600;2022-12-29T01:14:40;9.80;99.90
26954;DHT22;14508;50.924;11.600;2022-12-29T01:17:08;9.70;99.90
26954;DHT22;14508;50.924;11.600;2022-12-29T01:19:36;9.70;99.90
26954;DHT22;14508;50.924;11.600;2022-12-29T01:22:03;9.70;99.90
26954;DHT22;14508;50.924;11.600;2022-12-29T01:24:32;9.70;99.90
26954;DHT22;14508;50.924;11.600;2022-12-29T01:27:00;9.80;99.90
26954;DHT22;14508;50.924;11.600;2022-12-29T01:29:30;9.90;99.90
26954;DHT22;14508;50.924;11.600;2022-12-29T01:31:58;9.90;99.90
26954;DHT22;14508;50.924;11.600;2022-12-29T01:34:26;10.00;99.90
26954;DHT22;14508;50.924;11.600;2022-12-29T01:36:54;10.10;99.90
26954;DHT22;14508;50.924;11.600;2022-12-29T01:39:21;10.10;99.90
26954;DHT22;14508;50.924;11.600;2022-12-29T01:41:49;10.10;99.90
26954;DHT22;14508;50.924;11.600;2022-12-29T01:47:32;10.20;99.90
26954;DHT22;14508;50.924;11.600;2022-12-29T01:50:05;10.30;99.90
26954;DHT22;14508;50.924;11.600;2022-12-29T01:52:36;10.30;99.90
26954;DHT22;14508;50.924;11.600;2022-12-29T01:55:07;10.30;99.90
26954;DHT22;14508;50.924;11.600;2022-12-29T01:57:39;10.40;99.90
26954;DHT22;14508;50.924;11.600;2022-12-29T02:00:10;10.40;99.90
26954;DHT22;14508;50.924;11.600;2022-12-29T02:02:43;10.40;99.90
26954;DHT22;14508;50.924;11.600;2022-12-29T02:05:18;10.40;99.90
26954;DHT22;14508;50.924;11.600;2022-12-29T02:07:48;10.50;99.90
26954;DHT22;14508;50.924;11.600;2022-12-29T02:10:19;10.50;99.90
26954;DHT22;14508;50.924;11.600;2022-12-29T02:12:47;10.50;99.90
26954;DHT22;14508;50.924;11.600;2022-12-29T02:15:16;10.50;99.90
26954;DHT22;14508;50.924;11.600;2022-12-29T02:18:02;10.50;99.90
26954;DHT22;14508;50.924;11.600;2022-12-29T02:23:58;10.50;99.90
26954;DHT22;14508;50.924;11.600;2022-12-29T02:26:57;10.50;99.90
26954;DHT22;14508;50.924;11.600;2022-12-29T02:29:46;10.40;99.90
26954;DHT22;14508;50.924;11.600;2022-12-29T02:32:26;10.40;99.90
26954;DHT22;14508;50.924;11.600;2022-12-29T02:35:06;10.40;99.90
26954;DHT22;14508;50.924;11.600;2022-12-29T02:37:43;10.40;99.90
26954;DHT22;14508;50.924;11.600;2022-12-29T02:40:20;10.40;99.90
26954;DHT22;14508;50.924;11.600;2022-12-29T02:42:55;10.30;99.90
26954;DHT22;14508;50.924;11.600;2022-12-29T02:45:31;10.40;99.90
26954;DHT22;14508;50.924;11.600;2022-12-29T02:48:07;10.30;99.90
26954;DHT22;14508;50.924;11.600;2022-12-29T02:50:38;10.30;99.90
26954;DHT22;14508;50.924;11.600;2022-12-29T02:53:09;10.30;99.90
26954;DHT22;14508;50.924;11.600;2022-12-29T02:55:47;10.30;99.90
26954;DHT22;14508;50.924;11.600;2022-12-29T02:58:16;10.30;99.90
26954;DHT22;14508;50.924;11.600;2022-12-29T03:00:56;10.30;99.90
26954;DHT22;14508;50.924;11.600;2022-12-29T03:03:42;10.30;99.90
26954;DHT22;14508;50.924;11.600;2022-12-29T03:06:25;10.30;99.90
26954;DHT22;14508;50.924;11.600;2022-12-29T03:09:05;10.30;99.90
26954;DHT22;14508;50.924;11.600;2022-12-29T03:11:50;10.30;99.90
26954;DHT22;14508;50.924;11.600;2022-12-29T03:14:46;10.20;99.90
26954;DHT22;14508;50.924;11.600;2022-12-29T03:17:43;10.20;99.90
26954;DHT22;14508;50.924;11.600;2022-12-29T03:20:17;10.20;99.90
26954;DHT22;14508;50.924;11.600;2022-12-29T03:22:51;10.20;99.90
26954;DHT22;14508;50.924;11.600;2022-12-29T03:25:25;10.20;99.90
26954;DHT22;14508;50.924;11.600;2022-12-29T03:28:00;10.10;99.90
26954;DHT22;14508;50.924;11.600;2022-12-29T03:30:34;10.00;99.90
26954;DHT22;14508;50.924;11.600;2022-12-29T03:33:07;10.00;99.90
26954;DHT22;14508;50.924;11.600;2022-12-29T03:35:40;10.00;99.90
26954;DHT22;14508;50.924;11.600;2022-12-29T03:38:14;10.00;99.90
26954;DHT22;14508;50.924;11.600;2022-12-29T03:40:46;10.00;99.90
26954;DHT22;14508;50.924;11.600;2022-12-29T03:43:16;10.00;99.90
26954;DHT22;14508;50.924;11.600;2022-12-29T03:45:46;10.10;99.90
26954;DHT22;14508;50.924;11.600;2022-12-29T03:48:14;10.10;99.90
26954;DHT22;14508;50.924;11.600;2022-12-29T03:50:45;10.20;99.90
26954;DHT22;14508;50.924;11.600;2022-12-29T03:53:14;10.20;99.90
26954;DHT22;14508;50.924;11.600;2022-12-29T03:55:42;10.30;99.90
26954;DHT22;14508;50.924;11.600;2022-12-29T03:58:10;10.30;99.90
26954;DHT22;14508;50.924;11.600;2022-12-29T04:01:11;10.30;99.90
26954;DHT22;14508;50.924;11.600;2022-12-29T04:03:40;10.40;99.90
26954;DHT22;14508;50.924;11.600;2022-12-29T04:06:10;10.40;99.90
26954;DHT22;14508;50.924;11.600;2022-12-29T04:08:48;10.40;99.90
26954;DHT22;14508;50.924;11.600;2022-12-29T04:11:16;10.40;99.90
26954;DHT22;14508;50.924;11.600;2022-12-29T04:13:44;10.40;99.90
26954;DHT22;14508;50.924;11.600;2022-12-29T04:16:17;10.40;99.90
26954;DHT22;14508;50.924;11.600;2022-12-29T04:18:45;10.30;99.90
26954;DHT22;14508;50.924;11.600;2022-12-29T04:21:14;10.30;99.90
26954;DHT22;14508;50.924;11.600;2022-12-29T04:23:43;10.30;99.90
26954;DHT22;14508;50.924;11.600;2022-12-29T04:26:12;10.30;99.90
26954;DHT22;14508;50.924;11.600;2022-12-29T04:28:56;10.30;99.90
26954;DHT22;14508;50.924;11.600;2022-12-29T04:31:33;10.30;99.90
26954;DHT22;14508;50.924;11.600;2022-12-29T04:34:01;10.30;99.90
26954;DHT22;14508;50.924;11.600;2022-12-29T04:36:31;10.30;99.90
26954;DHT22;14508;50.924;11.600;2022-12-29T04:39:00;10.30;99.90
26954;DHT22;14508;50.924;11.600;2022-12-29T04:41:28;10.20;99.90
26954;DHT22;14508;50.924;11.600;2022-12-29T04:43:56;10.20;99.90
26954;DHT22;14508;50.924;11.600;2022-12-29T04:46:27;10.10;99.90
26954;DHT22;14508;50.924;11.600;2022-12-29T04:49:08;10.10;99.90
26954;DHT22;14508;50.924;11.600;2022-12-29T04:51:52;10.00;99.90
26954;DHT22;14508;50.924;11.600;2022-12-29T04:54:20;9.90;99.90
26954;DHT22;14508;50.924;11.600;2022-12-29T04:56:55;9.90;99.90
26954;DHT22;14508;50.924;11.600;2022-12-29T04:59:23;10.00;99.90
26954;DHT22;14508;50.924;11.600;2022-12-29T05:01:55;9.90;99.90
26954;DHT22;14508;50.924;11.600;2022-12-29T05:04:23;10.00;99.90
26954;DHT22;14508;50.924;11.600;2022-12-29T05:06:53;10.00;99.90
26954;DHT22;14508;50.924;11.600;2022-12-29T05:09:21;10.00;99.90
26954;DHT22;14508;50.924;11.600;2022-12-29T05:11:50;9.90;99.90
26954;DHT22;14508;50.924;11.600;2022-12-29T05:14:18;9.90;99.90
26954;DHT22;14508;50.924;11.600;2022-12-29T05:16:46;10.00;99.90
26954;DHT22;14508;50.924;11.600;2022-12-29T05:19:14;10.00;99.90
26954;DHT22;14508;50.924;11.600;2022-12-29T05:21:44;10.00;99.90
26954;DHT22;14508;50.924;11.600;2022-12-29T05:24:13;10.00;99.90
26954;DHT22;14508;50.924;11.600;2022-12-29T05:26:42;10.00;99.90
26954;DHT22;14508;50.924;11.600;2022-12-29T05:29:30;10.00;99.90
26954;DHT22;14508;50.924;11.600;2022-12-29T05:31:58;10.10;99.90
26954;DHT22;14508;50.924;11.600;2022-12-29T05:34:26;10.10;99.90
26954;DHT22;14508;50.924;11.600;2022-12-29T05:36:54;10.20;99.90
26954;DHT22;14508;50.924;11.600;2022-12-29T05:39:24;10.20;99.90
26954;DHT22;14508;50.924;11.600;2022-12-29T05:41:57;10.20;99.90
26954;DHT22;14508;50.924;11.600;2022-12-29T05:44:34;10.30;99.90
26954;DHT22;14508;50.924;11.600;2022-12-29T05:47:24;10.30;99.90
26954;DHT22;14508;50.924;11.600;2022-12-29T05:50:07;10.30;99.90
26954;DHT22;14508;50.924;11.600;2022-12-29T05:52:58;10.30;99.90
26954;DHT22;14508;50.924;11.600;2022-12-29T05:55:27;10.40;99.90
26954;DHT22;14508;50.924;11.600;2022-12-29T05:57:55;10.40;99.90
26954;DHT22;14508;50.924;11.600;2022-12-29T06:00:25;10.40;99.90
26954;DHT22;14508;50.924;11.600;2022-12-29T06:02:53;10.30;99.90
26954;DHT22;14508;50.924;11.600;2022-12-29T06:05:21;10.40;99.90
26954;DHT22;14508;50.924;11.600;2022-12-29T06:07:49;10.50;99.90
26954;DHT22;14508;50.924;11.600;2022-12-29T06:10:17;10.50;99.90
26954;DHT22;14508;50.924;11.600;2022-12-29T06:12:50;10.50;99.90
26954;DHT22;14508;50.924;11.600;2022-12-29T06:15:19;10.50;99.90
26954;DHT22;14508;50.924;11.600;2022-12-29T06:17:49;10.50;99.90
26954;DHT22;14508;50.924;11.600;2022-12-29T06:20:17;10.50;99.90
26954;DHT22;14508;50.924;11.600;2022-12-29T06:22:45;10.50;99.90
26954;DHT22;14508;50.924;11.600;2022-12-29T06:25:13;10.60;99.90
26954;DHT22;14508;50.924;11.600;2022-12-29T06:27:42;10.60;99.90
26954;DHT22;14508;50.924;11.600;2022-12-29T06:30:12;10.60;99.90
26954;DHT22;14508;50.924;11.600;2022-12-29T06:32:43;10.60;99.90
26954;DHT22;14508;50.924;11.600;2022-12-29T06:35:12;10.50;99.90
26954;DHT22;14508;50.924;11.600;2022-12-29T06:37:49;10.50;99.90
26954;DHT22;14508;50.924;11.600;2022-12-29T06:40:18;10.40;99.90
26954;DHT22;14508;50.924;11.600;2022-12-29T06:43:05;10.40;99.90
26954;DHT22;14508;50.924;11.600;2022-12-29T06:45:45;10.40;99.90
26954;DHT22;14508;50.924;11.600;2022-12-29T06:48:13;10.40;99.90
26954;DHT22;14508;50.924;11.600;2022-12-29T06:50:41;10.30;99.90
26954;DHT22;14508;50.924;11.600;2022-12-29T06:53:09;10.30;99.90
26954;DHT22;14508;50.924;11.600;2022-12-29T06:55:37;10.30;99.90
26954;DHT22;14508;50.924;11.600;2022-12-29T06:58:04;10.30;99.90
26954;DHT22;14508;50.924;11.600;2022-12-29T07:00:32;10.40;99.90
26954;DHT22;14508;50.924;11.600;2022-12-29T07:03:02;10.50;99.90
26954;DHT22;14508;50.924;11.600;2022-12-29T07:05:30;10.50;99.90
26954;DHT22;14508;50.924;11.600;2022-12-29T07:07:59;10.60;99.90
26954;DHT22;14508;50.924;11.600;2022-12-29T07:10:27;10.60;99.90
26954;DHT22;14508;50.924;11.600;2022-12-29T07:12:55;10.60;99.90
26954;DHT22;14508;50.924;11.600;2022-12-29T07:15:23;10.60;99.90
26954;DHT22;14508;50.924;11.600;2022-12-29T07:17:51;10.60;99.90
26954;DHT22;14508;50.924;11.600;2022-12-29T07:20:20;10.70;99.90
26954;DHT22;14508;50.924;11.600;2022-12-29T07:22:52;10.80;99.90
26954;DHT22;14508;50.924;11.600;2022-12-29T07:25:20;10.80;99.90
26954;DHT22;14508;50.924;11.600;2022-12-29T07:27:48;10.80;99.90
26954;DHT22;14508;50.924;11.600;2022-12-29T07:30:16;10.80;99.90
26954;DHT22;14508;50.924;11.600;2022-12-29T07:32:44;10.80;99.90
26954;DHT22;14508;50.924;11.600;2022-12-29T07:35:12;10.80;99.90
26954;DHT22;14508;50.924;11.600;2022-12-29T07:37:41;10.80;99.90
26954;DHT22;14508;50.924;11.600;2022-12-29T07:40:10;10.80;99.90
26954;DHT22;14508;50.924;11.600;2022-12-29T07:42:38;10.80;99.90
26954;DHT22;14508;50.924;11.600;2022-12-29T07:45:08;10.80;99.90
26954;DHT22;14508;50.924;11.600;2022-12-29T07:48:12;10.80;99.90
26954;DHT22;14508;50.924;11.600;2022-12-29T07:50:40;10.80;99.90
26954;DHT22;14508;50.924;11.600;2022-12-29T07:53:09;10.90;99.90
26954;DHT22;14508;50.924;11.600;2022-12-29T07:55:37;10.90;99.90
26954;DHT22;14508;50.924;11.600;2022-12-29T07:58:05;10.90;99.90
26954;DHT22;14508;50.924;11.600;2022-12-29T08:00:33;11.00;99.90
26954;DHT22;14508;50.924;11.600;2022-12-29T08:03:01;11.00;99.90
26954;DHT22;14508;50.924;11.600;2022-12-29T08:05:30;11.10;99.90
26954;DHT22;14508;50.924;11.600;2022-12-29T08:07:58;11.20;99.90
26954;DHT22;14508;50.924;11.600;2022-12-29T08:10:27;11.20;99.90
26954;DHT22;14508;50.924;11.600;2022-12-29T08:12:55;11.30;99.90
26954;DHT22;14508;50.924;11.600;2022-12-29T08:15:22;11.40;99.90
26954;DHT22;14508;50.924;11.600;2022-12-29T08:17:58;11.50;99.90
26954;DHT22;14508;50.924;11.600;2022-12-29T08:20:26;11.50;99.90
26954;DHT22;14508;50.924;11.600;2022-12-29T08:22:54;11.50;99.90
26954;DHT22;14508;50.924;11.600;2022-12-29T08:25:22;11.60;99.90
26954;DHT22;14508;50.924;11.600;2022-12-29T08:27:51;11.60;99.90
26954;DHT22;14508;50.924;11.600;2022-12-29T08:30:19;11.60;99.90
26954;DHT22;14508;50.924;11.600;2022-12-29T08:32:47;11.60;99.90
26954;DHT22;14508;50.924;11.600;2022-12-29T08:35:15;11.50;99.90
26954;DHT22;14508;50.924;11.600;2022-12-29T08:37:43;11.60;99.90
26954;DHT22;14508;50.924;11.600;2022-12-29T08:40:11;11.50;99.90
26954;DHT22;14508;50.924;11.600;2022-12-29T08:42:40;11.50;99.90
26954;DHT22;14508;50.924;11.600;2022-12-29T08:45:10;11.50;99.90
26954;DHT22;14508;50.924;11.600;2022-12-29T08:47:38;11.50;99.90
26954;DHT22;14508;50.924;11.600;2022-12-29T08:50:06;11.50;99.90
26954;DHT22;14508;50.924;11.600;2022-12-29T08:52:34;11.50;99.90
26954;DHT22;14508;50.924;11.600;2022-12-29T08:55:02;11.50;99.90
26954;DHT22;14508;50.924;11.600;2022-12-29T08:57:31;11.50;99.90
26954;DHT22;14508;50.924;11.600;2022-12-29T09:00:07;11.60;99.90
26954;DHT22;14508;50.924;11.600;2022-12-29T09:02:37;11.70;99.90
26954;DHT22;14508;50.924;11.600;2022-12-29T09:05:06;11.90;99.90
26954;DHT22;14508;50.924;11.600;2022-12-29T09:07:34;12.00;99.90
26954;DHT22;14508;50.924;11.600;2022-12-29T09:10:02;12.20;99.90
26954;DHT22;14508;50.924;11.600;2022-12-29T09:12:30;12.20;99.90
26954;DHT22;14508;50.924;11.600;2022-12-29T09:15:03;12.20;99.90
26954;DHT22;14508;50.924;11.600;2022-12-29T09:17:31;12.30;99.90
26954;DHT22;14508;50.924;11.600;2022-12-29T09:20:15;12.20;99.90
26954;DHT22;14508;50.924;11.600;2022-12-29T09:22:44;12.20;99.90
26954;DHT22;14508;50.924;11.600;2022-12-29T09:25:12;12.30;99.90
26954;DHT22;14508;50.924;11.600;2022-12-29T09:27:40;12.40;99.90
26954;DHT22;14508;50.924;11.600;2022-12-29T09:30:10;12.50;99.90
26954;DHT22;14508;50.924;11.600;2022-12-29T09:32:38;12.60;99.90
26954;DHT22;14508;50.924;11.600;2022-12-29T09:35:13;12.60;99.90
26954;DHT22;14508;50.924;11.600;2022-12-29T09:37:41;12.70;99.90
26954;DHT22;14508;50.924;11.600;2022-12-29T09:40:22;12.70;99.90
26954;DHT22;14508;50.924;11.600;2022-12-29T09:43:16;12.70;99.90
26954;DHT22;14508;50.924;11.600;2022-12-29T09:45:50;12.70;99.90
26954;DHT22;14508;50.924;11.600;2022-12-29T09:48:24;12.70;99.90
26954;DHT22;14508;50.924;11.600;2022-12-29T09:50:56;12.80;99.90
26954;DHT22;14508;50.924;11.600;2022-12-29T09:53:28;12.80;99.90
26954;DHT22;14508;50.924;11.600;2022-12-29T09:56:00;12.80;99.90
26954;DHT22;14508;50.924;11.600;2022-12-29T09:58:34;12.80;99.90
26954;DHT22;14508;50.924;11.600;2022-12-29T10:01:05;12.80;99.90
26954;DHT22;14508;50.924;11.600;2022-12-29T10:03:44;12.80;99.90
26954;DHT22;14508;50.924;11.600;2022-12-29T10:06:18;12.80;99.90
26954;DHT22;14508;50.924;11.600;2022-12-29T10:08:49;12.80;99.90
26954;DHT22;14508;50.924;11.600;2022-12-29T10:11:26;12.80;99.90
26954;DHT22;14508;50.924;11.600;2022-12-29T10:14:12;12.80;99.90
26954;DHT22;14508;50.924;11.600;2022-12-29T10:16:49;12.80;99.90
26954;DHT22;14508;50.924;11.600;2022-12-29T10:19:39;12.70;99.90
26954;DHT22;14508;50.924;11.600;2022-12-29T10:22:20;12.70;99.90
26954;DHT22;14508;50.924;11.600;2022-12-29T10:24:53;12.70;99.90
26954;DHT22;14508;50.924;11.600;2022-12-29T10:27:24;12.70;99.90
26954;DHT22;14508;50.924;11.600;2022-12-29T10:29:55;12.70;99.90
26954;DHT22;14508;50.924;11.600;2022-12-29T10:32:27;12.80;99.90
26954;DHT22;14508;50.924;11.600;2022-12-29T10:35:00;12.80;99.90
26954;DHT22;14508;50.924;11.600;2022-12-29T10:37:39;12.90;99.90
26954;DHT22;14508;50.924;11.600;2022-12-29T10:40:18;13.00;99.90
26954;DHT22;14508;50.924;11.600;2022-12-29T10:42:51;13.00;99.90
26954;DHT22;14508;50.924;11.600;2022-12-29T10:45:21;13.00;99.90
26954;DHT22;14508;50.924;11.600;2022-12-29T10:47:56;13.10;99.90
26954;DHT22;14508;50.924;11.600;2022-12-29T10:50:25;13.10;99.90
26954;DHT22;14508;50.924;11.600;2022-12-29T10:52:59;13.10;99.90
26954;DHT22;14508;50.924;11.600;2022-12-29T10:55:31;13.20;99.90
26954;DHT22;14508;50.924;11.600;2022-12-29T10:58:03;13.20;99.80
26954;DHT22;14508;50.924;11.600;2022-12-29T11:00:33;13.20;99.00
26954;DHT22;14508;50.924;11.600;2022-12-29T11:03:25;13.20;98.80
26954;DHT22;14508;50.924;11.600;2022-12-29T11:06:05;13.20;98.30
26954;DHT22;14508;50.924;11.600;2022-12-29T11:08:36;13.20;98.40
26954;DHT22;14508;50.924;11.600;2022-12-29T11:11:08;13.20;98.40
26954;DHT22;14508;50.924;11.600;2022-12-29T11:13:48;13.20;98.10
26954;DHT22;14508;50.924;11.600;2022-12-29T11:16:27;13.20;98.20
26954;DHT22;14508;50.924;11.600;2022-12-29T11:18:57;13.20;98.00
26954;DHT22;14508;50.924;11.600;2022-12-29T11:21:30;13.20;97.60
26954;DHT22;14508;50.924;11.600;2022-12-29T11:24:01;13.20;97.60
26954;DHT22;14508;50.924;11.600;2022-12-29T11:26:29;13.10;97.70
26954;DHT22;14508;50.924;11.600;2022-12-29T11:29:22;13.10;97.60
26954;DHT22;14508;50.924;11.600;2022-12-29T11:31:54;13.10;98.00
26954;DHT22;14508;50.924;11.600;2022-12-29T11:34:24;13.00;98.00
26954;DHT22;14508;50.924;11.600;2022-12-29T11:36:58;13.10;97.90
26954;DHT22;14508;50.924;11.600;2022-12-29T11:39:41;13.10;97.60
26954;DHT22;14508;50.924;11.600;2022-12-29T11:42:14;13.10;97.30
26954;DHT22;14508;50.924;11.600;2022-12-29T11:44:44;13.20;96.60
26954;DHT22;14508;50.924;11.600;2022-12-29T11:47:22;13.10;96.60
26954;DHT22;14508;50.924;11.600;2022-12-29T11:49:53;13.20;96.40
26954;DHT22;14508;50.924;11.600;2022-12-29T11:52:23;13.10;96.30
26954;DHT22;14508;50.924;11.600;2022-12-29T11:54:55;13.10;96.20
26954;DHT22;14508;50.924;11.600;2022-12-29T11:57:24;13.00;96.00
26954;DHT22;14508;50.924;11.600;2022-12-29T11:59:57;13.00;96.40
26954;DHT22;14508;50.924;11.600;2022-12-29T12:02:37;13.00;97.00
26954;DHT22;14508;50.924;11.600;2022-12-29T12:05:27;12.90;97.50
26954;DHT22;14508;50.924;11.600;2022-12-29T12:08:04;12.90;98.20
26954;DHT22;14508;50.924;11.600;2022-12-29T12:10:38;12.80;97.40
26954;DHT22;14508;50.924;11.600;2022-12-29T12:13:19;12.80;97.50
26954;DHT22;14508;50.924;11.600;2022-12-29T12:15:52;12.90;97.30
26954;DHT22;14508;50.924;11.600;2022-12-29T12:18:34;13.00;96.80
26954;DHT22;14508;50.924;11.600;2022-12-29T12:21:10;13.10;96.70
26954;DHT22;14508;50.924;11.600;2022-12-29T12:23:54;13.20;95.70
26954;DHT22;14508;50.924;11.600;2022-12-29T12:26:33;13.20;95.40
26954;DHT22;14508;50.924;11.600;2022-12-29T12:29:08;13.20;95.90
26954;DHT22;14508;50.924;11.600;2022-12-29T12:31:45;13.20;97.00
26954;DHT22;14508;50.924;11.600;2022-12-29T12:34:18;13.10;98.50
26954;DHT22;14508;50.924;11.600;2022-12-29T12:37:09;13.00;99.50
26954;DHT22;14508;50.924;11.600;2022-12-29T12:39:47;12.90;99.90
26954;DHT22;14508;50.924;11.600;2022-12-29T12:42:27;12.70;99.90
26954;DHT22;14508;50.924;11.600;2022-12-29T12:45:13;12.60;99.90
26954;DHT22;14508;50.924;11.600;2022-12-29T12:47:56;12.50;99.90
26954;DHT22;14508;50.924;11.600;2022-12-29T12:50:44;12.50;99.90
26954;DHT22;14508;50.924;11.600;2022-12-29T12:53:27;12.50;99.90
26954;DHT22;14508;50.924;11.600;2022-12-29T12:56:15;12.40;99.90
26954;DHT22;14508;50.924;11.600;2022-12-29T12:58:51;12.30;99.90
26954;DHT22;14508;50.924;11.600;2022-12-29T13:01:33;12.10;99.90
26954;DHT22;14508;50.924;11.600;2022-12-29T13:04:18;12.00;99.90
26954;DHT22;14508;50.924;11.600;2022-12-29T13:07:00;11.90;99.90
26954;DHT22;14508;50.924;11.600;2022-12-29T13:09:45;11.70;99.90
26954;DHT22;14508;50.924;11.600;2022-12-29T13:12:27;11.70;99.90
26954;DHT22;14508;50.924;11.600;2022-12-29T13:15:09;11.60;99.90
26954;DHT22;14508;50.924;11.600;2022-12-29T13:17:45;11.60;99.90
26954;DHT22;14508;50.924;11.600;2022-12-29T13:20:23;11.60;99.90
26954;DHT22;14508;50.924;11.600;2022-12-29T13:22:56;11.60;99.90
26954;DHT22;14508;50.924;11.600;2022-12-29T13:25:32;11.70;99.90
26954;DHT22;14508;50.924;11.600;2022-12-29T13:28:09;11.60;99.90
26954;DHT22;14508;50.924;11.600;2022-12-29T13:30:43;11.50;99.90
26954;DHT22;14508;50.924;11.600;2022-12-29T13:33:20;11.40;99.90
26954;DHT22;14508;50.924;11.600;2022-12-29T13:35:57;11.30;99.90
26954;DHT22;14508;50.924;11.600;2022-12-29T13:38:29;11.30;99.90
26954;DHT22;14508;50.924;11.600;2022-12-29T13:41:01;11.30;99.90
26954;DHT22;14508;50.924;11.600;2022-12-29T13:43:35;11.30;99.90
26954;DHT22;14508;50.924;11.600;2022-12-29T13:46:08;11.30;99.90
26954;DHT22;14508;50.924;11.600;2022-12-29T13:48:42;11.30;99.90
26954;DHT22;14508;50.924;11.600;2022-12-29T13:51:11;11.20;99.90
26954;DHT22;14508;50.924;11.600;2022-12-29T13:53:54;11.30;99.90
26954;DHT22;14508;50.924;11.600;2022-12-29T13:56:25;11.30;99.90
26954;DHT22;14508;50.924;11.600;2022-12-29T13:58:58;11.30;99.90
26954;DHT22;14508;50.924;11.600;2022-12-29T14:01:33;11.40;99.90
26954;DHT22;14508;50.924;11.600;2022-12-29T14:04:08;11.40;99.90
26954;DHT22;14508;50.924;11.600;2022-12-29T14:06:37;11.40;99.90
26954;DHT22;14508;50.924;11.600;2022-12-29T14:09:30;11.50;99.90
26954;DHT22;14508;50.924;11.600;2022-12-29T14:12:01;11.50;99.90
26954;DHT22;14508;50.924;11.600;2022-12-29T14:14:46;11.50;99.90
26954;DHT22;14508;50.924;11.600;2022-12-29T14:17:20;11.50;99.90
26954;DHT22;14508;50.924;11.600;2022-12-29T14:19:52;11.50;99.90
26954;DHT22;14508;50.924;11.600;2022-12-29T14:22:23;11.40;99.90
26954;DHT22;14508;50.924;11.600;2022-12-29T14:24:58;11.30;99.90
26954;DHT22;14508;50.924;11.600;2022-12-29T14:27:52;11.30;99.90
26954;DHT22;14508;50.924;11.600;2022-12-29T14:30:47;11.20;99.90
26954;DHT22;14508;50.924;11.600;2022-12-29T14:33:17;11.10;99.90
26954;DHT22;14508;50.924;11.600;2022-12-29T14:35:47;11.00;99.90
26954;DHT22;14508;50.924;11.600;2022-12-29T14:38:24;11.00;99.90
26954;DHT22;14508;50.924;11.600;2022-12-29T14:41:29;10.90;99.90
26954;DHT22;14508;50.924;11.600;2022-12-29T14:43:59;10.90;99.90
26954;DHT22;14508;50.924;11.600;2022-12-29T14:46:46;10.80;99.90
26954;DHT22;14508;50.924;11.600;2022-12-29T14:49:17;10.80;99.90
26954;DHT22;14508;50.924;11.600;2022-12-29T14:51:47;10.80;99.90
26954;DHT22;14508;50.924;11.600;2022-12-29T14:54:42;10.70;99.90
26954;DHT22;14508;50.924;11.600;2022-12-29T14:57:20;10.60;99.90
26954;DHT22;14508;50.924;11.600;2022-12-29T14:59:54;10.50;99.90
26954;DHT22;14508;50.924;11.600;2022-12-29T15:02:26;10.50;99.90
26954;DHT22;14508;50.924;11.600;2022-12-29T15:05:00;10.50;99.90
26954;DHT22;14508;50.924;11.600;2022-12-29T15:07:29;10.40;99.90
26954;DHT22;14508;50.924;11.600;2022-12-29T15:10:03;10.40;99.90
26954;DHT22;14508;50.924;11.600;2022-12-29T15:12:37;10.30;99.90
26954;DHT22;14508;50.924;11.600;2022-12-29T15:15:18;10.20;99.90
26954;DHT22;14508;50.924;11.600;2022-12-29T15:17:46;10.20;99.90
26954;DHT22;14508;50.924;11.600;2022-12-29T15:20:21;10.20;99.90
26954;DHT22;14508;50.924;11.600;2022-12-29T15:22:53;10.10;99.90
26954;DHT22;14508;50.924;11.600;2022-12-29T15:25:21;10.00;99.90
26954;DHT22;14508;50.924;11.600;2022-12-29T15:27:52;10.00;99.90
26954;DHT22;14508;50.924;11.600;2022-12-29T15:30:21;10.00;99.90
26954;DHT22;14508;50.924;11.600;2022-12-29T15:32:49;9.90;99.90
26954;DHT22;14508;50.924;11.600;2022-12-29T15:35:28;9.80;99.90
26954;DHT22;14508;50.924;11.600;2022-12-29T15:37:57;9.80;99.90
26954;DHT22;14508;50.924;11.600;2022-12-29T15:40:27;9.70;99.90
26954;DHT22;14508;50.924;11.600;2022-12-29T15:43:16;9.70;99.90
26954;DHT22;14508;50.924;11.600;2022-12-29T15:45:49;9.70;99.90
26954;DHT22;14508;50.924;11.600;2022-12-29T15:48:19;9.60;99.90
26954;DHT22;14508;50.924;11.600;2022-12-29T15:50:50;9.60;99.90
26954;DHT22;14508;50.924;11.600;2022-12-29T15:53:20;9.60;99.90
26954;DHT22;14508;50.924;11.600;2022-12-29T15:55:56;9.50;99.90
26954;DHT22;14508;50.924;11.600;2022-12-29T15:58:31;9.50;99.90
26954;DHT22;14508;50.924;11.600;2022-12-29T16:01:17;9.50;99.90
26954;DHT22;14508;50.924;11.600;2022-12-29T16:03:46;9.40;99.90
26954;DHT22;14508;50.924;11.600;2022-12-29T16:06:28;9.40;99.90